首页
METAR-TAF:

METAR-TAF

机场 :

鹿特丹海牙机场

鹿特丹, 荷兰

纬度: 51-57N, 经度: 004-27E, 海拔: -5米

当前天气观测

该预报发布于18分钟前的20:25 UTC
风速14节,风向,在南转南东南转西南之间变化
温度 6°C
湿度 87%
气压 996 hPa
能见度10公里或以上
少量云层高于1600英尺
散云层高于3200英尺
多云层高于3900英尺

METAR: EHRD 122025Z AUTO 18014KT 150V210 9999 FEW016 SCT032 BKN039 06/04 Q0996 TEMPO 7000 -SHRA BKN012 FEW020CB

时间: 21:43 (20:43 UTC)

预报

该预报发布于3小时和23分钟前的17:20 UTC
预报有效从12日的 18点(UTC)到 13日的 24点(UTC)
风速16节,风向
能见度10公里或以上
散云层高于2500英尺
短暂存在
从 12日的 19点(UTC)到 13日的 01点(UTC)
风速18节,风向南转西南,有时为28节阵风
能見度: 5000
多云层高于1200英尺
散云层高于2000英尺, 积雨云.
雨, 阵雨
成为
从 13日的 00点(UTC)到 13日的 03点(UTC)
风速13节,风向西南
短暂存在
从 13日的 01点(UTC)到 13日的 19点(UTC)
能見度: 6000
少量云层高于1500英尺
散云层高于2500英尺, 积雨云.
阵雨
几率 30% :
短暂存在
从 13日的 01点(UTC)到 13日的 15点(UTC)
风速15节,风向西,有时为25节阵风
能見度: 4000
散云层高于1200英尺
散云层高于2000英尺, 积雨云.
阵雨, 小冰雹或雪球
成为
从 13日的 07点(UTC)到 13日的 10点(UTC)
风速13节,风向西
成为
从 13日的 14点(UTC)到 13日的 17点(UTC)
风速8节,风向南转西南
成为
从 13日的 19点(UTC)到 13日的 22点(UTC)
风速10节,风向南转南东

TAF: EHRD 121720Z 1218/1324 19016KT 9999 SCT025 TEMPO 1219/1301 21018G28KT 5000 RA SHRA BKN012 SCT020CB BECMG 1300/1303 22013KT TEMPO 1301/1319 6000 SHRA FEW015 SCT025CB PROB30 TEMPO 1301/1315 27015G25KT 4000 SHRAGS SCT012 SCT020CB BECMG 1307/1310 28013KT BECMG 1314/1317 20008KT BECMG 1319/1322 15010KT

超过4000个机场的气象观测和天气预报(METAR&TAF报告)。

可查询的气象台以黄色和红色小点在地图上表示。

将鼠标移到小点上方,可查看气象台名称。

然后点击查看天气观测和预报。

如需切换地图:点击带黑十字的绿色按钮放大地图;点击带横线的绿色按钮缩小地图;或者点击绿色箭头查看邻近地区的地图。


METAR-TAF: